Aviation Digital Data Service (ADDS)

Output produced by METARs form (1348 UTC 27 September 2016)
found at http://aviationweather.gov/adds/metars/
 
KBWI 271128Z 2712/2818 33005KT P6SM BKN050 BKN130 
     FM271600 VRB04KT P6SM SCT200 
     FM272000 17005KT P6SM SCT200 
     FM280000 VRB03KT P6SM SCT200 
     FM281000 VRB04KT P6SM BKN050 
     FM281500 07005KT P6SM BKN025 OVC050